KESF/ESF METAR and TAF weather

Enter ICAO airport designator
Station Type Date Time Source
KESF METAR 2021/09/24 01:53 UTC NOAA

KESF 240153Z AUTO 00000KT 10SM CLR 16/14 A3006 RMK AO2 SLP178 T01610144


Station Type Date Time Source
KESF Decoded METAR 2021/09/24 01:53 UTC NOAA

ALEXANDRIA ESLER RGNL AIRPORT , LA, United States (KESF) 31-24N 092-18W 28M
Sep 23, 2021 - 09:53 PM EDT / 2021.09.24 0153 UTC
Wind: Calm:0
Visibility: 10 mile(s):0
Sky conditions: clear
Temperature: 61.0 F (16.1 C)
Dew Point: 57.9 F (14.4 C)
Relative Humidity: 89%
Pressure (altimeter): 30.06 in. Hg (1017 hPa)
ob: KESF 240153Z AUTO 00000KT 10SM CLR 16/14 A3006 RMK AO2 SLP178 T01610144
cycle: 2

Station Type Date Time Source
KESF TAF UTC NOAA

Error!

Example: see airport list